Time;durP1;ratioP1;P1;durP2;ratioP2;P2;SDS_P1;SDS_P2;PMS_P1;PMS_P2;Temp;Humidity;BMP_temperature;BMP_pressure;BME280_temperature;BME280_humidity;BME280_pressure;Samples;Min_cycle;Max_cycle;Signal;HPM_P1;HPM_P2
2022/07/31 00:00:37;;;;;;;;;;;;;;;;;;5092973;28;983;-70
2022/07/31 00:03:03;;;;;;;;;;;;;;;;;;5092299;28;836;-70
2022/07/31 00:05:29;;;;;;;;;;;;;;;;;;5090725;28;1174;-70
2022/07/31 00:07:55;;;;;;;;;;;;;;;;;;5091053;28;1182;-70
2022/07/31 00:10:21;;;;;;;;;;;;;;;;;;5090852;28;1351;-70
2022/07/31 00:12:46;;;;;;;;;;;;;;;;;;5092692;28;1906;-70
2022/07/31 00:15:11;;;;;;;;;;;;;;;;;;5074186;28;1293;-70
2022/07/31 00:17:37;;;;;;;;;;;;;;;;;;5092714;28;916;-70
2022/07/31 00:20:03;;;;;;;;;;;;;;;;;;5090662;28;1187;-70
2022/07/31 00:22:28;;;;;;;;;;;;;;;;;;5092126;28;916;-70
2022/07/31 00:24:54;;;;;;;;;;;;;;;;;;5092040;28;825;-70
2022/07/31 00:27:19;;;;;;;;;;;;;;;;;;5092257;28;911;-70
2022/07/31 00:29:45;;;;;;;;;;;;;;;;;;5092515;28;837;-70
2022/07/31 00:32:10;;;;;;;;;;;;;;;;;;5092183;28;1975;-70
2022/07/31 00:34:35;;;;;;;;;;;;;;;;;;5092397;28;904;-70
2022/07/31 00:37:01;;;;;;;;;;;;;;;;;;5092310;28;916;-70
2022/07/31 00:39:26;;;;;;;;;;;;;;;;;;5091536;28;908;-70
2022/07/31 00:41:53;;;;;;;;;;;;;;;;;;5090943;28;1520;-70
2022/07/31 00:44:19;;;;;;;;;;;;;;;;;;5092644;28;814;-70
2022/07/31 00:46:44;;;;;;;;;;;;;;;;;;5092638;28;914;-70
2022/07/31 00:49:09;;;;;;;;;;;;;;;;;;5091320;28;1169;-70
2022/07/31 00:51:36;;;;;;;;;;;;;;;;;;5092680;28;1968;-70
2022/07/31 00:54:01;;;;;;;;;;;;;;;;;;5091788;28;947;-70
2022/07/31 00:56:26;;;;;;;;;;;;;;;;;;5090377;28;1065;-70
2022/07/31 00:58:53;;;;;;;;;;;;;;;;;;5090169;28;1565;-70
2022/07/31 01:01:19;;;;;;;;;;;;;;;;;;5091728;28;864;-70
2022/07/31 01:03:44;;;;;;;;;;;;;;;;;;5091852;28;919;-70
2022/07/31 01:06:09;;;;;;;;;;;;;;;;;;5090538;28;1019;-70
2022/07/31 01:08:35;;;;;;;;;;;;;;;;;;5092028;28;884;-71
2022/07/31 01:11:04;;;;;;;;;;;;;;;;;;5091624;28;1316;-70
2022/07/31 01:13:51;;;;;;;;;;;;;;;;;;5092258;28;1910;-71
2022/07/31 01:16:17;;;;;;;;;;;;;;;;;;5090773;28;1222;-71
2022/07/31 01:18:43;;;;;;;;;;;;;;;;;;5095640;28;864;-70
2022/07/31 01:21:12;;;;;;;;;;;;;;;;;;5094049;28;1090;-70
2022/07/31 01:23:37;;;;;;;;;;;;;;;;;;5095902;28;880;-70
2022/07/31 01:26:11;;;;;;;;;;;;;;;;;;5095319;28;995;-70
2022/07/31 01:28:59;;;;;;;;;;;;;;;;;;5094309;28;1146;-70
2022/07/31 01:31:26;;;;;;;;;;;;;;;;;;5094062;28;1976;-70
2022/07/31 01:33:56;;;;;;;;;;;;;;;;;;5095763;28;1006;-70
2022/07/31 01:36:23;;;;;;;;;;;;;;;;;;5095620;28;926;-70
2022/07/31 01:38:50;;;;;;;;;;;;;;;;;;5095717;28;913;-70
2022/07/31 01:41:17;;;;;;;;;;;;;;;;;;5095462;28;821;-70
2022/07/31 01:43:45;;;;;;;;;;;;;;;;;;5094438;28;1240;-71
2022/07/31 01:46:12;;;;;;;;;;;;;;;;;;5095458;28;882;-70
2022/07/31 01:48:38;;;;;;;;;;;;;;;;;;5095279;28;958;-71
2022/07/31 01:51:04;;;;;;;;;;;;;;;;;;5095335;28;1046;-70
2022/07/31 01:53:30;;;;;;;;;;;;;;;;;;5095330;28;1901;-71
2022/07/31 01:55:57;;;;;;;;;;;;;;;;;;5094094;28;896;-70
2022/07/31 01:58:23;;;;;;;;;;;;;;;;;;5094856;28;860;-70
2022/07/31 02:00:51;;;;;;;;;;;;;;;;;;5095332;28;994;-70
2022/07/31 02:03:16;;;;;;;;;;;;;;;;;;5095281;28;995;-70
2022/07/31 02:05:43;;;;;;;;;;;;;;;;;;5094014;28;915;-70
2022/07/31 02:08:09;;;;;;;;;;;;;;;;;;5094745;28;896;-70
2022/07/31 02:10:36;;;;;;;;;;;;;;;;;;5094807;28;1075;-70
2022/07/31 02:13:01;;;;;;;;;;;;;;;;;;5094831;28;1921;-70
2022/07/31 02:15:28;;;;;;;;;;;;;;;;;;5093409;28;1448;-70
2022/07/31 02:17:54;;;;;;;;;;;;;;;;;;5097756;28;1271;-71
2022/07/31 02:20:19;;;;;;;;;;;;;;;;;;5106393;28;1176;-70
2022/07/31 02:22:45;;;;;;;;;;;;;;;;;;5104330;28;1186;-70
2022/07/31 02:25:10;;;;;;;;;;;;;;;;;;5115325;28;915;-70
2022/07/31 02:27:38;;;;;;;;;;;;;;;;;;5114965;28;801;-70
2022/07/31 02:30:03;;;;;;;;;;;;;;;;;;5115473;28;919;-71
2022/07/31 02:32:30;;;;;;;;;;;;;;;;;;5115668;28;1910;-71
2022/07/31 02:34:57;;;;;;;;;;;;;;;;;;5114904;28;960;-70
2022/07/31 02:37:25;;;;;;;;;;;;;;;;;;5115284;28;856;-70
2022/07/31 02:39:51;;;;;;;;;;;;;;;;;;5115631;28;879;-70
2022/07/31 02:42:17;;;;;;;;;;;;;;;;;;5114522;28;864;-70
2022/07/31 02:44:42;;;;;;;;;;;;;;;;;;5114820;28;983;-70
2022/07/31 02:47:08;;;;;;;;;;;;;;;;;;5114699;28;891;-70
2022/07/31 02:49:33;;;;;;;;;;;;;;;;;;5114912;28;958;-70
2022/07/31 02:51:59;;;;;;;;;;;;;;;;;;5096063;28;1914;-70
2022/07/31 02:54:24;;;;;;;;;;;;;;;;;;5114952;28;918;-70
2022/07/31 02:56:49;;;;;;;;;;;;;;;;;;5115038;28;868;-70
2022/07/31 02:59:15;;;;;;;;;;;;;;;;;;5114411;28;876;-70
2022/07/31 03:01:41;;;;;;;;;;;;;;;;;;5114674;28;967;-70
2022/07/31 03:04:07;;;;;;;;;;;;;;;;;;5113361;28;1340;-70
2022/07/31 03:06:32;;;;;;;;;;;;;;;;;;5114605;28;1085;-70
2022/07/31 03:08:58;;;;;;;;;;;;;;;;;;5114614;27;883;-70
2022/07/31 03:11:23;;;;;;;;;;;;;;;;;;5113124;28;1976;-70
2022/07/31 03:13:49;;;;;;;;;;;;;;;;;;5114715;28;805;-70
2022/07/31 03:16:16;;;;;;;;;;;;;;;;;;5114635;28;904;-70
2022/07/31 03:18:42;;;;;;;;;;;;;;;;;;5114475;28;915;-70
2022/07/31 03:21:08;;;;;;;;;;;;;;;;;;5114803;28;1144;-70
2022/07/31 03:23:37;;;;;;;;;;;;;;;;;;5115102;28;1064;-70
2022/07/31 03:26:05;;;;;;;;;;;;;;;;;;5114429;28;931;-70
2022/07/31 03:28:32;;;;;;;;;;;;;;;;;;5114553;28;927;-70
2022/07/31 03:30:57;;;;;;;;;;;;;;;;;;5114604;28;896;-70
2022/07/31 03:33:22;;;;;;;;;;;;;;;;;;5114762;28;1906;-70
2022/07/31 03:35:48;;;;;;;;;;;;;;;;;;5113370;28;832;-71
2022/07/31 03:38:13;;;;;;;;;;;;;;;;;;5114531;28;1115;-70
2022/07/31 03:40:39;;;;;;;;;;;;;;;;;;5113631;28;994;-70
2022/07/31 03:43:05;;;;;;;;;;;;;;;;;;5116313;28;1055;-69
2022/07/31 03:45:31;;;;;;;;;;;;;;;;;;5116980;28;1030;-70
2022/07/31 03:47:56;;;;;;;;;;;;;;;;;;5115012;28;844;-70
2022/07/31 03:50:22;;;;;;;;;;;;;;;;;;5114053;28;817;-70
2022/07/31 03:52:48;;;;;;;;;;;;;;;;;;5113516;28;1898;-70
2022/07/31 03:55:13;;;;;;;;;;;;;;;;;;5114112;28;907;-70
2022/07/31 03:57:39;;;;;;;;;;;;;;;;;;5113428;28;1147;-70
2022/07/31 04:00:05;;;;;;;;;;;;;;;;;;5113202;28;894;-70
2022/07/31 04:02:30;;;;;;;;;;;;;;;;;;5113423;28;1157;-68
2022/07/31 04:04:56;;;;;;;;;;;;;;;;;;5113995;28;1025;-69
2022/07/31 04:07:21;;;;;;;;;;;;;;;;;;5112845;28;1414;-69
2022/07/31 04:09:46;;;;;;;;;;;;;;;;;;5114088;28;915;-69
2022/07/31 04:12:12;;;;;;;;;;;;;;;;;;5111983;28;1910;-69
2022/07/31 04:14:37;;;;;;;;;;;;;;;;;;5112562;28;1194;-69
2022/07/31 04:17:02;;;;;;;;;;;;;;;;;;5113004;28;828;-68
2022/07/31 04:19:31;;;;;;;;;;;;;;;;;;5113176;28;940;-69
2022/07/31 04:22:00;;;;;;;;;;;;;;;;;;5111781;28;888;-69
2022/07/31 04:24:25;;;;;;;;;;;;;;;;;;5113717;28;972;-68
2022/07/31 04:26:51;;;;;;;;;;;;;;;;;;5113816;28;875;-68
2022/07/31 04:29:16;;;;;;;;;;;;;;;;;;5113266;28;832;-70
2022/07/31 04:31:41;;;;;;;;;;;;;;;;;;5113132;28;1952;-69
2022/07/31 04:34:07;;;;;;;;;;;;;;;;;;5113485;28;848;-70
2022/07/31 04:36:32;;;;;;;;;;;;;;;;;;5114093;28;829;-70
2022/07/31 04:38:58;;;;;;;;;;;;;;;;;;5114540;28;985;-69
2022/07/31 04:41:23;;;;;;;;;;;;;;;;;;5114077;28;1301;-68
2022/07/31 04:43:50;;;;;;;;;;;;;;;;;;5116179;28;817;-68
2022/07/31 04:46:15;;;;;;;;;;;;;;;;;;5122152;28;995;-68
2022/07/31 04:48:40;;;;;;;;;;;;;;;;;;5114916;28;911;-69
2022/07/31 04:51:05;;;;;;;;;;;;;;;;;;5102685;28;1206;-69
2022/07/31 04:53:30;;;;;;;;;;;;;;;;;;5107792;28;1913;-69
2022/07/31 04:58:40;;;;;;;;;;;;;;;;;;5105159;28;773;-69
2022/07/31 05:01:05;;;;;;;;;;;;;;;;;;5108186;28;856;-70
2022/07/31 05:03:30;;;;;;;;;;;;;;;;;;5116079;28;939;-70
2022/07/31 05:05:55;;;;;;;;;;;;;;;;;;5114097;28;1031;-69
2022/07/31 05:08:20;;;;;;;;;;;;;;;;;;5113381;28;924;-70
2022/07/31 05:13:30;;;;;;;;;;;;;;;;;;5097097;28;1891;-70
2022/07/31 05:15:55;;;;;;;;;;;;;;;;;;5096734;28;967;-70
2022/07/31 05:18:20;;;;;;;;;;;;;;;;;;5078439;28;1305;-70
2022/07/31 05:20:46;;;;;;;;;;;;;;;;;;5096577;28;844;-70
2022/07/31 05:23:11;;;;;;;;;;;;;;;;;;5077536;28;1426;-70
2022/07/31 05:25:36;;;;;;;;;;;;;;;;;;5096228;28;1094;-70
2022/07/31 05:28:02;;;;;;;;;;;;;;;;;;5094637;28;1076;-70
2022/07/31 05:30:27;;;;;;;;;;;;;;;;;;5096355;28;895;-69
2022/07/31 05:32:52;;;;;;;;;;;;;;;;;;5095220;28;1911;-67
2022/07/31 05:35:17;;;;;;;;;;;;;;;;;;5096023;28;939;-69
2022/07/31 05:37:43;;;;;;;;;;;;;;;;;;5095331;28;892;-68
2022/07/31 05:40:08;;;;;;;;;;;;;;;;;;5095385;28;992;-68
2022/07/31 05:42:34;;;;;;;;;;;;;;;;;;5095498;28;813;-68
2022/07/31 05:44:59;;;;;;;;;;;;;;;;;;5094712;28;955;-68
2022/07/31 05:47:24;;;;;;;;;;;;;;;;;;5096029;28;899;-68
2022/07/31 05:49:50;;;;;;;;;;;;;;;;;;5095087;28;832;-68
2022/07/31 05:52:18;;;;;;;;;;;;;;;;;;5093355;28;1959;-68
2022/07/31 05:54:44;;;;;;;;;;;;;;;;;;5094767;28;813;-69
2022/07/31 05:57:09;;;;;;;;;;;;;;;;;;5094728;28;861;-68
2022/07/31 05:59:35;;;;;;;;;;;;;;;;;;5094720;28;836;-67
2022/07/31 06:02:00;;;;;;;;;;;;;;;;;;5094013;28;884;-68
2022/07/31 06:04:25;;;;;;;;;;;;;;;;;;5094325;28;1000;-68
2022/07/31 06:06:51;;;;;;;;;;;;;;;;;;5094688;28;911;-68
2022/07/31 06:09:16;;;;;;;;;;;;;;;;;;5094642;28;784;-68
2022/07/31 06:11:41;;;;;;;;;;;;;;;;;;5099258;28;1917;-67
2022/07/31 06:14:07;;;;;;;;;;;;;;;;;;5113447;28;1205;-68
2022/07/31 06:16:32;;;;;;;;;;;;;;;;;;5083032;28;1194;-68
2022/07/31 06:18:57;;;;;;;;;;;;;;;;;;5104448;28;1124;-68
2022/07/31 06:21:22;;;;;;;;;;;;;;;;;;5093318;28;1266;-68
2022/07/31 06:23:48;;;;;;;;;;;;;;;;;;5094440;28;848;-67
2022/07/31 06:26:13;;;;;;;;;;;;;;;;;;5092257;28;1241;-67
2022/07/31 06:28:38;;;;;;;;;;;;;;;;;;5094510;28;903;-70
2022/07/31 06:31:03;;;;;;;;;;;;;;;;;;5094335;28;921;-68
2022/07/31 06:33:29;;;;;;;;;;;;;;;;;;5091952;28;1965;-68
2022/07/31 06:35:54;;;;;;;;;;;;;;;;;;5090948;28;951;-68
2022/07/31 06:38:23;;;;;;;;;;;;;;;;;;5092705;28;915;-69
2022/07/31 06:40:48;;;;;;;;;;;;;;;;;;5075202;28;1300;-68
2022/07/31 06:43:13;;;;;;;;;;;;;;;;;;5091659;28;990;-68
2022/07/31 06:45:40;;;;;;;;;;;;;;;;;;5091347;28;1336;-68
2022/07/31 06:48:05;;;;;;;;;;;;;;;;;;5092678;28;843;-68
2022/07/31 06:50:30;;;;;;;;;;;;;;;;;;5093376;28;824;-68
2022/07/31 06:52:56;;;;;;;;;;;;;;;;;;5093203;28;1898;-68
2022/07/31 06:55:21;;;;;;;;;;;;;;;;;;5093467;28;861;-68
2022/07/31 06:57:46;;;;;;;;;;;;;;;;;;5093683;28;845;-68
2022/07/31 07:00:12;;;;;;;;;;;;;;;;;;5092840;28;1006;-69
2022/07/31 07:02:37;;;;;;;;;;;;;;;;;;5092383;28;1183;-68
2022/07/31 07:05:03;;;;;;;;;;;;;;;;;;5093736;28;1057;-69
2022/07/31 07:07:28;;;;;;;;;;;;;;;;;;5092676;28;869;-68
2022/07/31 07:09:53;;;;;;;;;;;;;;;;;;5092297;28;938;-69
2022/07/31 07:12:19;;;;;;;;;;;;;;;;;;5093458;28;1898;-68
2022/07/31 07:14:44;;;;;;;;;;;;;;;;;;5094407;28;907;-68
2022/07/31 07:17:09;;;;;;;;;;;;;;;;;;5091982;28;884;-68
2022/07/31 07:19:38;;;;;;;;;;;;;;;;;;5092385;28;849;-68
2022/07/31 07:22:03;;;;;;;;;;;;;;;;;;5093193;28;986;-68
2022/07/31 07:24:28;;;;;;;;;;;;;;;;;;5091778;28;864;-68
2022/07/31 07:26:53;;;;;;;;;;;;;;;;;;5074332;28;1241;-68
2022/07/31 07:29:19;;;;;;;;;;;;;;;;;;5074779;28;1394;-69
2022/07/31 07:31:44;;;;;;;;;;;;;;;;;;5074699;28;1965;-68
2022/07/31 07:34:09;;;;;;;;;;;;;;;;;;5095657;28;1353;-68
2022/07/31 07:36:35;;;;;;;;;;;;;;;;;;5098605;28;1358;-69
2022/07/31 07:39:00;;;;;;;;;;;;;;;;;;5107167;28;1524;-68
2022/07/31 07:41:26;;;;;;;;;;;;;;;;;;5092426;28;899;-68
2022/07/31 07:43:51;;;;;;;;;;;;;;;;;;5091228;28;1154;-68
2022/07/31 07:46:17;;;;;;;;;;;;;;;;;;5089118;28;1655;-68
2022/07/31 07:48:42;;;;;;;;;;;;;;;;;;5092147;28;1041;-69
2022/07/31 07:51:07;;;;;;;;;;;;;;;;;;5091403;28;1291;-69
2022/07/31 07:53:32;;;;;;;;;;;;;;;;;;5095036;28;1906;-69
2022/07/31 07:55:59;;;;;;;;;;;;;;;;;;5107082;28;1140;-68
2022/07/31 07:58:24;;;;;;;;;;;;;;;;;;5097092;28;1255;-68
2022/07/31 08:00:49;;;;;;;;;;;;;;;;;;5099917;28;1247;-68
2022/07/31 08:03:15;;;;;;;;;;;;;;;;;;5105224;28;1416;-68
2022/07/31 08:05:41;;;;;;;;;;;;;;;;;;5112427;28;903;-68
2022/07/31 08:08:09;;;;;;;;;;;;;;;;;;5093749;28;1285;-68
2022/07/31 08:10:34;;;;;;;;;;;;;;;;;;5112366;28;1175;-68
2022/07/31 08:12:59;;;;;;;;;;;;;;;;;;5110667;28;1953;-68
2022/07/31 08:15:24;;;;;;;;;;;;;;;;;;5110764;28;899;-67
2022/07/31 08:17:50;;;;;;;;;;;;;;;;;;5111012;28;904;-68
2022/07/31 08:20:15;;;;;;;;;;;;;;;;;;5112052;28;927;-68
2022/07/31 08:22:40;;;;;;;;;;;;;;;;;;5111074;28;947;-68
2022/07/31 08:25:06;;;;;;;;;;;;;;;;;;5110755;28;1247;-67
2022/07/31 08:27:31;;;;;;;;;;;;;;;;;;5110918;28;864;-68
2022/07/31 08:29:57;;;;;;;;;;;;;;;;;;5111522;28;812;-68
2022/07/31 08:32:24;;;;;;;;;;;;;;;;;;5109767;28;1960;-68
2022/07/31 08:34:49;;;;;;;;;;;;;;;;;;5111431;28;848;-68
2022/07/31 08:37:18;;;;;;;;;;;;;;;;;;5111685;28;832;-68
2022/07/31 08:39:43;;;;;;;;;;;;;;;;;;5110642;28;1344;-68
2022/07/31 08:42:09;;;;;;;;;;;;;;;;;;5111676;28;930;-68
2022/07/31 08:44:38;;;;;;;;;;;;;;;;;;5093580;28;1352;-68
2022/07/31 08:47:07;;;;;;;;;;;;;;;;;;5111681;28;848;-68
2022/07/31 08:49:37;;;;;;;;;;;;;;;;;;5112168;28;1061;-67
2022/07/31 08:52:03;;;;;;;;;;;;;;;;;;5112283;28;1961;-68
2022/07/31 08:54:30;;;;;;;;;;;;;;;;;;5094137;28;1190;-68
2022/07/31 08:56:55;;;;;;;;;;;;;;;;;;5110904;28;1172;-69
2022/07/31 08:59:21;;;;;;;;;;;;;;;;;;5111215;28;1304;-68
2022/07/31 09:01:47;;;;;;;;;;;;;;;;;;5113090;28;840;-71
2022/07/31 09:04:12;;;;;;;;;;;;;;;;;;5113073;28;837;-70
2022/07/31 09:06:37;;;;;;;;;;;;;;;;;;5113259;28;992;-71
2022/07/31 09:09:03;;;;;;;;;;;;;;;;;;5112152;28;899;-71
2022/07/31 09:11:29;;;;;;;;;;;;;;;;;;5112719;28;1913;-71
2022/07/31 09:13:54;;;;;;;;;;;;;;;;;;5111338;28;1526;-71
2022/07/31 09:16:20;;;;;;;;;;;;;;;;;;5112493;28;1528;-71
2022/07/31 09:18:55;;;;;;;;;;;;;;;;;;5111284;28;1065;-71
2022/07/31 09:21:21;;;;;;;;;;;;;;;;;;5111301;28;1145;-71
2022/07/31 09:23:47;;;;;;;;;;;;;;;;;;5111272;28;1103;-71
2022/07/31 09:26:12;;;;;;;;;;;;;;;;;;5112428;28;829;-71
2022/07/31 09:28:40;;;;;;;;;;;;;;;;;;5112243;28;1051;-71
2022/07/31 09:31:06;;;;;;;;;;;;;;;;;;5111896;28;864;-71
2022/07/31 09:33:31;;;;;;;;;;;;;;;;;;5110512;28;1972;-71
2022/07/31 09:35:57;;;;;;;;;;;;;;;;;;5112530;28;836;-71
2022/07/31 09:38:36;;;;;;;;;;;;;;;;;;5112244;28;940;-71
2022/07/31 09:41:15;;;;;;;;;;;;;;;;;;5115060;28;871;-71
2022/07/31 09:43:41;;;;;;;;;;;;;;;;;;5115781;28;932;-71
2022/07/31 09:46:07;;;;;;;;;;;;;;;;;;5097036;28;1249;-71
2022/07/31 09:48:33;;;;;;;;;;;;;;;;;;5115141;28;1133;-71
2022/07/31 09:51:00;;;;;;;;;;;;;;;;;;5113332;28;875;-71
2022/07/31 09:53:25;;;;;;;;;;;;;;;;;;5114079;28;1909;-71
2022/07/31 09:55:51;;;;;;;;;;;;;;;;;;5114278;28;1011;-71
2022/07/31 09:58:17;;;;;;;;;;;;;;;;;;5115038;28;956;-71
2022/07/31 10:00:42;;;;;;;;;;;;;;;;;;5096523;28;1080;-71
2022/07/31 10:03:08;;;;;;;;;;;;;;;;;;5115213;28;875;-71
2022/07/31 10:05:34;;;;;;;;;;;;;;;;;;5115175;27;916;-71
2022/07/31 10:08:00;;;;;;;;;;;;;;;;;;5114281;28;1014;-71
2022/07/31 10:10:27;;;;;;;;;;;;;;;;;;5114671;28;1064;-71
2022/07/31 10:12:54;;;;;;;;;;;;;;;;;;5114734;28;1910;-71
2022/07/31 10:15:19;;;;;;;;;;;;;;;;;;5113269;28;974;-71
2022/07/31 10:17:46;;;;;;;;;;;;;;;;;;5113269;28;1402;-71
2022/07/31 10:20:16;;;;;;;;;;;;;;;;;;5114505;28;975;-71
2022/07/31 10:22:44;;;;;;;;;;;;;;;;;;5114596;28;895;-71
2022/07/31 10:25:12;;;;;;;;;;;;;;;;;;5096282;28;1215;-71
2022/07/31 10:27:37;;;;;;;;;;;;;;;;;;5113276;28;1330;-71
2022/07/31 10:30:04;;;;;;;;;;;;;;;;;;5114538;28;986;-71
2022/07/31 10:32:30;;;;;;;;;;;;;;;;;;5114700;28;1957;-71
2022/07/31 10:34:56;;;;;;;;;;;;;;;;;;5114495;28;923;-71
2022/07/31 10:37:32;;;;;;;;;;;;;;;;;;5114908;28;1062;-71
2022/07/31 10:39:57;;;;;;;;;;;;;;;;;;5114303;28;1283;-71
2022/07/31 10:42:34;;;;;;;;;;;;;;;;;;5115077;28;899;-71
2022/07/31 10:45:02;;;;;;;;;;;;;;;;;;5114687;28;916;-71
2022/07/31 10:47:28;;;;;;;;;;;;;;;;;;5114750;28;856;-71
2022/07/31 10:49:53;;;;;;;;;;;;;;;;;;5113845;27;887;-70
2022/07/31 10:52:29;;;;;;;;;;;;;;;;;;5114249;28;1963;-70
2022/07/31 10:54:57;;;;;;;;;;;;;;;;;;5114185;28;899;-71
2022/07/31 10:57:40;;;;;;;;;;;;;;;;;;5113201;28;880;-71
2022/07/31 11:00:10;;;;;;;;;;;;;;;;;;5112895;28;910;-71
2022/07/31 11:02:36;;;;;;;;;;;;;;;;;;5112895;28;1320;-71
2022/07/31 11:05:22;;;;;;;;;;;;;;;;;;5113361;28;982;-71
2022/07/31 11:07:58;;;;;;;;;;;;;;;;;;5112467;28;1242;-71
2022/07/31 11:10:23;;;;;;;;;;;;;;;;;;5113846;28;1289;-71
2022/07/31 11:12:58;;;;;;;;;;;;;;;;;;5113289;28;1995;-71
2022/07/31 11:15:24;;;;;;;;;;;;;;;;;;5112435;28;1162;-71
2022/07/31 11:17:50;;;;;;;;;;;;;;;;;;5113558;28;820;-71
2022/07/31 11:20:21;;;;;;;;;;;;;;;;;;5113121;28;943;-70
2022/07/31 11:22:53;;;;;;;;;;;;;;;;;;5112857;28;987;-71
2022/07/31 11:25:19;;;;;;;;;;;;;;;;;;5102386;28;1218;-70
2022/07/31 11:27:44;;;;;;;;;;;;;;;;;;5092974;28;1041;-70
2022/07/31 11:30:10;;;;;;;;;;;;;;;;;;5093027;28;1026;-70
2022/07/31 11:32:35;;;;;;;;;;;;;;;;;;5090987;28;1897;-70
2022/07/31 11:35:00;;;;;;;;;;;;;;;;;;5092909;28;900;-71
2022/07/31 11:37:27;;;;;;;;;;;;;;;;;;5093082;28;829;-71
2022/07/31 11:39:53;;;;;;;;;;;;;;;;;;5091399;28;1147;-71
2022/07/31 11:42:19;;;;;;;;;;;;;;;;;;5092741;28;829;-71
2022/07/31 11:44:44;;;;;;;;;;;;;;;;;;5091411;28;1046;-71
2022/07/31 11:47:09;;;;;;;;;;;;;;;;;;5092415;28;907;-71
2022/07/31 11:49:36;;;;;;;;;;;;;;;;;;5092659;28;912;-71
2022/07/31 11:52:08;;;;;;;;;;;;;;;;;;5091809;28;1967;-72
2022/07/31 11:54:34;;;;;;;;;;;;;;;;;;5092589;28;1205;-72
2022/07/31 11:56:59;;;;;;;;;;;;;;;;;;5093219;28;816;-71
2022/07/31 11:59:27;;;;;;;;;;;;;;;;;;5094085;28;824;-71
2022/07/31 12:01:53;;;;;;;;;;;;;;;;;;5091108;28;836;-71
2022/07/31 12:04:18;;;;;;;;;;;;;;;;;;5074204;28;1249;-71
2022/07/31 12:06:43;;;;;;;;;;;;;;;;;;5093465;28;1043;-71
2022/07/31 12:09:09;;;;;;;;;;;;;;;;;;5093313;28;934;-72
2022/07/31 12:11:35;;;;;;;;;;;;;;;;;;5075218;28;1898;-72
2022/07/31 12:14:01;;;;;;;;;;;;;;;;;;5092567;28;907;-72
2022/07/31 12:16:37;;;;;;;;;;;;;;;;;;5093025;28;2185;-72
2022/07/31 12:19:02;;;;;;;;;;;;;;;;;;5094055;28;816;-72
2022/07/31 12:21:32;;;;;;;;;;;;;;;;;;5093969;28;915;-71
2022/07/31 12:23:59;;;;;;;;;;;;;;;;;;5092736;28;1567;-71
2022/07/31 12:26:25;;;;;;;;;;;;;;;;;;5092331;28;1342;-71
2022/07/31 12:28:57;;;;;;;;;;;;;;;;;;5093163;28;845;-71
2022/07/31 12:31:23;;;;;;;;;;;;;;;;;;5090182;28;1276;-72
2022/07/31 12:33:48;;;;;;;;;;;;;;;;;;5092312;28;1909;-71
2022/07/31 12:36:14;;;;;;;;;;;;;;;;;;5091463;28;1119;-72
2022/07/31 12:38:40;;;;;;;;;;;;;;;;;;5092914;28;812;-72
2022/07/31 12:41:05;;;;;;;;;;;;;;;;;;5091328;28;1182;-71
2022/07/31 12:43:31;;;;;;;;;;;;;;;;;;5094027;28;962;-71
2022/07/31 12:45:59;;;;;;;;;;;;;;;;;;5094460;28;1054;-72
2022/07/31 12:48:25;;;;;;;;;;;;;;;;;;5094432;28;871;-72
2022/07/31 12:50:50;;;;;;;;;;;;;;;;;;5092968;28;857;-72
2022/07/31 12:53:16;;;;;;;;;;;;;;;;;;5091665;28;1973;-71
2022/07/31 12:55:41;;;;;;;;;;;;;;;;;;5092232;28;896;-71
2022/07/31 12:58:06;;;;;;;;;;;;;;;;;;5124733;28;1213;-71
2022/07/31 13:00:32;;;;;;;;;;;;;;;;;;5091331;28;896;-71
2022/07/31 13:02:57;;;;;;;;;;;;;;;;;;5091038;28;1014;-72
2022/07/31 13:05:23;;;;;;;;;;;;;;;;;;5090199;28;926;-72
2022/07/31 13:07:48;;;;;;;;;;;;;;;;;;5091544;28;611;-71
2022/07/31 13:10:14;;;;;;;;;;;;;;;;;;5090368;28;1351;-71
2022/07/31 13:12:39;;;;;;;;;;;;;;;;;;5093827;28;1972;-71
2022/07/31 13:15:05;;;;;;;;;;;;;;;;;;5095251;28;895;-71
2022/07/31 13:17:30;;;;;;;;;;;;;;;;;;5094578;28;895;-71
2022/07/31 13:19:55;;;;;;;;;;;;;;;;;;5094598;28;1046;-71
2022/07/31 13:22:20;;;;;;;;;;;;;;;;;;5094244;28;876;-72
2022/07/31 13:24:46;;;;;;;;;;;;;;;;;;5094005;28;1867;-71
2022/07/31 13:27:11;;;;;;;;;;;;;;;;;;5093754;28;1295;-71
2022/07/31 13:29:37;;;;;;;;;;;;;;;;;;5094252;28;1158;-72
2022/07/31 13:32:02;;;;;;;;;;;;;;;;;;5094843;28;1918;-71
2022/07/31 13:34:27;;;;;;;;;;;;;;;;;;5093928;28;963;-71
2022/07/31 13:36:52;;;;;;;;;;;;;;;;;;5095144;28;959;-71
2022/07/31 13:39:18;;;;;;;;;;;;;;;;;;5094901;28;1077;-71
2022/07/31 13:41:43;;;;;;;;;;;;;;;;;;5094894;28;825;-71
2022/07/31 13:44:09;;;;;;;;;;;;;;;;;;5094769;28;962;-71
2022/07/31 13:46:35;;;;;;;;;;;;;;;;;;5095378;28;852;-71
2022/07/31 13:49:00;;;;;;;;;;;;;;;;;;5093315;28;1328;-68
2022/07/31 13:51:25;;;;;;;;;;;;;;;;;;5082330;28;1689;-68
2022/07/31 13:53:51;;;;;;;;;;;;;;;;;;5090628;28;1904;-68
2022/07/31 13:56:16;;;;;;;;;;;;;;;;;;5092685;28;1210;-68
2022/07/31 13:58:42;;;;;;;;;;;;;;;;;;5095023;28;1167;-68
2022/07/31 14:01:07;;;;;;;;;;;;;;;;;;5089286;28;1029;-67
2022/07/31 14:03:32;;;;;;;;;;;;;;;;;;5099692;28;1175;-67
2022/07/31 14:05:58;;;;;;;;;;;;;;;;;;5097442;28;1222;-68
2022/07/31 14:08:23;;;;;;;;;;;;;;;;;;5093229;28;1259;-68
2022/07/31 14:10:48;;;;;;;;;;;;;;;;;;5075729;28;1162;-68
2022/07/31 14:13:14;;;;;;;;;;;;;;;;;;5093906;28;1910;-68
2022/07/31 14:15:39;;;;;;;;;;;;;;;;;;5093197;28;1418;-69
2022/07/31 14:18:05;;;;;;;;;;;;;;;;;;5092365;28;1631;-68
2022/07/31 14:20:32;;;;;;;;;;;;;;;;;;5093059;28;1201;-68
2022/07/31 14:22:58;;;;;;;;;;;;;;;;;;5094041;28;871;-68
2022/07/31 14:25:23;;;;;;;;;;;;;;;;;;5093541;28;856;-68
2022/07/31 14:27:51;;;;;;;;;;;;;;;;;;5094246;28;908;-68
2022/07/31 14:30:17;;;;;;;;;;;;;;;;;;5093477;28;837;-68
2022/07/31 14:32:42;;;;;;;;;;;;;;;;;;5093712;28;1898;-68
2022/07/31 14:35:08;;;;;;;;;;;;;;;;;;5093526;28;926;-68
2022/07/31 14:37:33;;;;;;;;;;;;;;;;;;5093706;28;852;-68
2022/07/31 14:39:58;;;;;;;;;;;;;;;;;;5092125;28;908;-68
2022/07/31 14:42:24;;;;;;;;;;;;;;;;;;5092524;28;868;-69
2022/07/31 14:44:49;;;;;;;;;;;;;;;;;;5093682;28;1195;-68
2022/07/31 14:47:15;;;;;;;;;;;;;;;;;;5092552;28;1057;-69
2022/07/31 14:49:40;;;;;;;;;;;;;;;;;;5092900;28;920;-68
2022/07/31 14:52:06;;;;;;;;;;;;;;;;;;5079062;28;1905;-69
2022/07/31 14:54:31;;;;;;;;;;;;;;;;;;5099141;28;1198;-69
2022/07/31 14:57:00;;;;;;;;;;;;;;;;;;5110072;28;1503;-69
2022/07/31 14:59:25;;;;;;;;;;;;;;;;;;5114001;27;875;-69
2022/07/31 15:01:50;;;;;;;;;;;;;;;;;;5112405;28;1155;-69
2022/07/31 15:04:16;;;;;;;;;;;;;;;;;;5112152;28;845;-68
2022/07/31 15:06:41;;;;;;;;;;;;;;;;;;5113716;28;1061;-69
2022/07/31 15:09:06;;;;;;;;;;;;;;;;;;5111996;28;1301;-70
2022/07/31 15:11:32;;;;;;;;;;;;;;;;;;5112070;28;1266;-70
2022/07/31 15:13:57;;;;;;;;;;;;;;;;;;5113496;28;1967;-70
2022/07/31 15:16:22;;;;;;;;;;;;;;;;;;5112413;28;1260;-70
2022/07/31 15:18:48;;;;;;;;;;;;;;;;;;5113986;28;903;-70
2022/07/31 15:21:16;;;;;;;;;;;;;;;;;;5111916;28;824;-70
2022/07/31 15:23:41;;;;;;;;;;;;;;;;;;5112760;28;1174;-69
2022/07/31 15:26:07;;;;;;;;;;;;;;;;;;5100799;28;1574;-69
2022/07/31 15:28:33;;;;;;;;;;;;;;;;;;5096001;27;1405;-69
2022/07/31 15:30:58;;;;;;;;;;;;;;;;;;5095112;28;1363;-71
2022/07/31 15:33:24;;;;;;;;;;;;;;;;;;5092599;28;1890;-71
2022/07/31 15:35:49;;;;;;;;;;;;;;;;;;5089846;28;1425;-69
2022/07/31 15:38:14;;;;;;;;;;;;;;;;;;5089572;28;1529;-70
2022/07/31 15:40:40;;;;;;;;;;;;;;;;;;5092365;28;1554;-69
2022/07/31 15:43:06;;;;;;;;;;;;;;;;;;5097004;28;1343;-69
2022/07/31 15:45:31;;;;;;;;;;;;;;;;;;5102115;28;1155;-69
2022/07/31 15:47:56;;;;;;;;;;;;;;;;;;5098516;28;1240;-68
2022/07/31 15:50:22;;;;;;;;;;;;;;;;;;5092636;28;887;-68
2022/07/31 15:52:47;;;;;;;;;;;;;;;;;;5092240;28;1980;-68
2022/07/31 15:55:13;;;;;;;;;;;;;;;;;;5090471;28;1084;-68
2022/07/31 15:57:38;;;;;;;;;;;;;;;;;;5093003;28;904;-69
2022/07/31 16:00:04;;;;;;;;;;;;;;;;;;5091284;28;887;-68
2022/07/31 16:02:29;;;;;;;;;;;;;;;;;;5090795;28;1470;-68
2022/07/31 16:04:55;;;;;;;;;;;;;;;;;;5090901;28;1131;-69
2022/07/31 16:07:21;;;;;;;;;;;;;;;;;;5091631;28;821;-69
2022/07/31 16:09:47;;;;;;;;;;;;;;;;;;5091220;28;1218;-69
2022/07/31 16:12:12;;;;;;;;;;;;;;;;;;5091886;28;1936;-69
2022/07/31 16:14:37;;;;;;;;;;;;;;;;;;5092366;28;820;-69
2022/07/31 16:17:02;;;;;;;;;;;;;;;;;;5090639;28;916;-69
2022/07/31 16:19:28;;;;;;;;;;;;;;;;;;5090777;28;836;-69
2022/07/31 16:21:53;;;;;;;;;;;;;;;;;;5091147;28;896;-69
2022/07/31 16:24:19;;;;;;;;;;;;;;;;;;5091648;28;868;-70
2022/07/31 16:26:44;;;;;;;;;;;;;;;;;;5091152;28;1248;-70
2022/07/31 16:29:10;;;;;;;;;;;;;;;;;;5091528;28;1122;-69
2022/07/31 16:31:35;;;;;;;;;;;;;;;;;;5090697;28;1251;-70
2022/07/31 16:34:00;;;;;;;;;;;;;;;;;;5091379;28;1906;-69
2022/07/31 16:36:26;;;;;;;;;;;;;;;;;;5090416;28;872;-70
2022/07/31 16:38:52;;;;;;;;;;;;;;;;;;5092229;28;852;-69
2022/07/31 16:41:17;;;;;;;;;;;;;;;;;;5091428;28;927;-70
2022/07/31 16:43:42;;;;;;;;;;;;;;;;;;5091960;28;907;-70
2022/07/31 16:46:08;;;;;;;;;;;;;;;;;;5091411;28;809;-69
2022/07/31 16:48:33;;;;;;;;;;;;;;;;;;5095555;28;983;-68
2022/07/31 16:50:59;;;;;;;;;;;;;;;;;;5095638;28;924;-68
2022/07/31 16:53:26;;;;;;;;;;;;;;;;;;5095427;28;1905;-68
2022/07/31 16:55:51;;;;;;;;;;;;;;;;;;5095435;28;857;-68
2022/07/31 16:58:16;;;;;;;;;;;;;;;;;;5095583;28;989;-68
2022/07/31 17:00:41;;;;;;;;;;;;;;;;;;5095581;28;825;-69
2022/07/31 17:03:07;;;;;;;;;;;;;;;;;;5094186;28;891;-68
2022/07/31 17:05:32;;;;;;;;;;;;;;;;;;5095324;28;925;-69
2022/07/31 17:07:57;;;;;;;;;;;;;;;;;;5095534;28;915;-69
2022/07/31 17:10:23;;;;;;;;;;;;;;;;;;5093272;28;1226;-69